createdAt,value
2022-11-01T00:00:07.521Z,0.00
2022-11-01T00:01:07.516Z,0.00
2022-11-01T00:02:07.508Z,0.00
2022-11-01T00:03:07.476Z,0.00
2022-11-01T00:04:07.435Z,0.00
2022-11-01T00:05:07.423Z,0.00
2022-11-01T00:06:07.433Z,0.00
2022-11-01T00:07:07.401Z,0.00
2022-11-01T00:08:07.393Z,0.00
2022-11-01T00:09:07.357Z,0.00
2022-11-01T00:10:07.424Z,0.00
2022-11-01T00:11:07.411Z,0.00
2022-11-01T00:12:07.330Z,0.00
2022-11-01T00:13:07.438Z,0.00
2022-11-01T00:14:08.923Z,0.00
2022-11-01T00:15:07.272Z,0.00
2022-11-01T00:16:07.352Z,0.00
2022-11-01T00:17:07.253Z,0.00
2022-11-01T00:18:07.318Z,0.00
2022-11-01T00:19:07.219Z,0.00
2022-11-01T00:20:07.223Z,0.00
2022-11-01T00:21:07.195Z,0.00
2022-11-01T00:22:07.312Z,0.00
2022-11-01T00:23:07.184Z,0.00
2022-11-01T00:24:07.169Z,0.00
2022-11-01T00:25:07.148Z,0.00
2022-11-01T00:26:07.201Z,0.00
2022-11-01T00:27:07.147Z,0.00
2022-11-01T00:28:07.110Z,0.00
2022-11-01T00:29:07.088Z,0.00
2022-11-01T00:30:07.094Z,0.00
2022-11-01T00:31:10.242Z,0.00
2022-11-01T00:32:07.113Z,0.00
2022-11-01T00:33:07.040Z,0.00
2022-11-01T00:34:07.042Z,0.00
2022-11-01T00:35:07.015Z,0.00
2022-11-01T00:36:07.010Z,0.00
2022-11-01T00:37:07.009Z,0.00
2022-11-01T00:38:07.008Z,0.00
2022-11-01T00:39:06.960Z,0.00
2022-11-01T00:40:06.959Z,0.00
2022-11-01T00:41:07.016Z,0.00
2022-11-01T00:42:06.931Z,0.00
2022-11-01T00:43:07.066Z,0.00
2022-11-01T00:44:06.916Z,0.00
2022-11-01T00:45:06.877Z,0.00
2022-11-01T00:46:06.953Z,0.00
2022-11-01T00:47:06.850Z,0.00
2022-11-01T00:48:06.871Z,0.00
2022-11-01T00:49:06.844Z,0.00
2022-11-01T00:50:06.897Z,0.00
2022-11-01T00:51:06.814Z,0.00
2022-11-01T00:52:06.783Z,0.00
2022-11-01T00:53:06.794Z,0.00
2022-11-01T00:54:06.789Z,0.00
2022-11-01T00:55:06.759Z,0.00
2022-11-01T00:56:06.807Z,0.00
2022-11-01T00:57:06.735Z,0.00
2022-11-01T00:58:06.693Z,0.00
2022-11-01T00:59:06.755Z,0.00
2022-11-01T01:00:06.792Z,0.00
2022-11-01T01:01:06.779Z,0.00
2022-11-01T01:02:06.758Z,0.00
2022-11-01T01:03:06.669Z,0.00
2022-11-01T01:04:06.613Z,0.00
2022-11-01T01:05:06.717Z,0.00
2022-11-01T01:06:06.621Z,0.00
2022-11-01T01:07:06.626Z,0.00
2022-11-01T01:08:06.597Z,0.00
2022-11-01T01:09:06.576Z,0.00
2022-11-01T01:10:06.570Z,0.00
2022-11-01T01:11:06.599Z,0.00
2022-11-01T01:12:06.512Z,0.00
2022-11-01T01:13:06.614Z,0.00
2022-11-01T01:14:06.490Z,0.00
2022-11-01T01:15:06.491Z,0.00
2022-11-01T01:16:06.529Z,0.00
2022-11-01T01:17:06.486Z,0.00
2022-11-01T01:18:06.431Z,0.00
2022-11-01T01:19:06.854Z,0.00
2022-11-01T01:20:06.408Z,0.00
2022-11-01T01:21:06.496Z,0.00
2022-11-01T01:22:06.383Z,0.00
2022-11-01T01:23:06.390Z,0.00
2022-11-01T01:24:06.376Z,0.00
2022-11-01T01:25:06.389Z,0.00
2022-11-01T01:26:06.327Z,0.00
2022-11-01T01:27:06.357Z,0.00
2022-11-01T01:28:06.311Z,0.00
2022-11-01T01:29:06.302Z,0.00
2022-11-01T01:30:06.321Z,0.00
2022-11-01T01:31:06.294Z,0.00
2022-11-01T01:32:06.281Z,0.00
2022-11-01T01:33:06.367Z,0.00
2022-11-01T01:34:06.249Z,0.00
2022-11-01T01:35:06.318Z,0.00
2022-11-01T01:36:06.201Z,0.00
2022-11-01T01:37:06.202Z,0.00
2022-11-01T01:38:06.203Z,0.00
2022-11-01T01:39:06.285Z,0.00
2022-11-01T01:40:06.146Z,0.00
2022-11-01T01:41:06.168Z,0.00
2022-11-01T01:42:06.126Z,0.00
2022-11-01T01:43:06.169Z,0.00
2022-11-01T01:44:06.129Z,0.00
2022-11-01T01:45:06.144Z,0.00
2022-11-01T01:46:06.063Z,0.00
2022-11-01T01:47:06.151Z,0.00
2022-11-01T01:48:06.057Z,0.00
2022-11-01T01:49:06.090Z,0.00
2022-11-01T01:50:06.060Z,0.00
2022-11-01T01:51:06.013Z,0.00
2022-11-01T01:52:05.984Z,0.00
2022-11-01T01:53:06.231Z,0.00
2022-11-01T01:54:06.047Z,0.00
2022-11-01T01:55:05.940Z,0.00
2022-11-01T01:56:05.942Z,0.00
2022-11-01T01:57:05.977Z,0.00
2022-11-01T01:58:05.916Z,0.00
2022-11-01T01:59:05.885Z,0.00
2022-11-01T02:00:05.947Z,0.00
2022-11-01T02:01:05.970Z,0.00
2022-11-01T02:02:05.924Z,0.00
2022-11-01T02:03:05.893Z,0.00
2022-11-01T02:04:05.836Z,0.00
2022-11-01T02:05:05.841Z,0.00
2022-11-01T02:06:05.878Z,0.00
2022-11-01T02:07:05.787Z,0.00
2022-11-01T02:08:05.784Z,0.00
2022-11-01T02:09:05.779Z,0.00
2022-11-01T02:10:05.754Z,0.00
2022-11-01T02:11:05.756Z,0.00
2022-11-01T02:12:05.729Z,0.00
2022-11-01T02:13:05.709Z,0.00
2022-11-01T02:14:05.718Z,0.00
2022-11-01T02:15:05.695Z,0.00
2022-11-01T02:16:05.715Z,0.00
2022-11-01T02:17:08.702Z,0.00
2022-11-01T02:18:05.646Z,0.00
2022-11-01T02:19:05.674Z,0.00
2022-11-01T02:20:05.673Z,0.00
2022-11-01T02:21:05.599Z,0.00
2022-11-01T02:22:05.632Z,0.00
2022-11-01T02:23:05.638Z,0.00
2022-11-01T02:24:05.570Z,0.00
2022-11-01T02:25:05.556Z,0.00
2022-11-01T02:26:05.538Z,0.00
2022-11-01T02:27:05.541Z,0.00
2022-11-01T02:28:05.536Z,0.00
2022-11-01T02:29:06.002Z,0.00
2022-11-01T02:30:05.496Z,0.00
2022-11-01T02:31:05.476Z,0.00
2022-11-01T02:32:05.486Z,0.00
2022-11-01T02:33:05.736Z,0.00
2022-11-01T02:34:05.441Z,0.00
2022-11-01T02:35:05.412Z,0.00
2022-11-01T02:36:05.425Z,0.00
2022-11-01T02:37:05.381Z,0.00
2022-11-01T02:38:05.471Z,0.00
2022-11-01T02:39:05.412Z,0.00
2022-11-01T02:40:05.353Z,0.00
2022-11-01T02:41:05.338Z,0.00
2022-11-01T02:42:05.329Z,0.00
2022-11-01T02:43:05.467Z,0.00
2022-11-01T02:44:05.355Z,0.00
2022-11-01T02:45:05.279Z,0.00
2022-11-01T02:46:05.275Z,0.00
2022-11-01T02:47:05.261Z,0.00
2022-11-01T02:48:05.242Z,0.00
2022-11-01T02:49:05.262Z,0.00
2022-11-01T02:50:05.260Z,0.00
2022-11-01T02:51:05.196Z,0.00
2022-11-01T02:52:05.201Z,0.00
2022-11-01T02:53:05.216Z,0.00
2022-11-01T02:54:05.170Z,0.00
2022-11-01T02:55:05.172Z,0.00
2022-11-01T02:56:05.203Z,0.00
2022-11-01T02:57:05.110Z,0.00
2022-11-01T02:58:05.421Z,0.00
2022-11-01T02:59:05.098Z,0.00
2022-11-01T03:00:05.159Z,0.00
2022-11-01T03:01:05.095Z,0.00
2022-11-01T03:02:05.173Z,0.00
2022-11-01T03:03:05.047Z,0.00
2022-11-01T03:04:05.036Z,0.00
2022-11-01T03:05:05.003Z,0.00
2022-11-01T03:06:05.059Z,0.00
2022-11-01T03:07:04.992Z,0.00
2022-11-01T03:08:05.324Z,0.00
2022-11-01T03:09:04.951Z,0.00
2022-11-01T03:10:05.019Z,0.00
2022-11-01T03:11:04.967Z,0.00
2022-11-01T03:12:04.925Z,0.00
2022-11-01T03:13:05.242Z,0.00
2022-11-01T03:14:04.904Z,0.00
2022-11-01T03:15:04.894Z,0.00
2022-11-01T03:16:04.875Z,0.00
2022-11-01T03:17:04.998Z,0.00
2022-11-01T03:18:04.866Z,0.00
2022-11-01T03:19:04.828Z,0.00
2022-11-01T03:20:04.830Z,0.00
2022-11-01T03:21:04.859Z,0.00
2022-11-01T03:22:04.847Z,0.00
2022-11-01T03:23:05.181Z,0.00
2022-11-01T03:24:04.772Z,0.00
2022-11-01T03:25:04.738Z,0.00
2022-11-01T03:26:04.765Z,0.00
2022-11-01T03:27:04.713Z,0.00
2022-11-01T03:28:04.737Z,0.00
2022-11-01T03:29:04.705Z,0.00
2022-11-01T03:30:04.704Z,0.00
2022-11-01T03:31:04.660Z,0.00
2022-11-01T03:32:04.686Z,0.00
2022-11-01T03:33:05.309Z,0.00
2022-11-01T03:34:04.639Z,0.00
2022-11-01T03:35:04.643Z,0.00
2022-11-01T03:36:04.608Z,0.00
2022-11-01T03:37:04.579Z,0.00
2022-11-01T03:38:04.611Z,0.00
2022-11-01T03:39:04.585Z,0.00
2022-11-01T03:40:04.577Z,0.00
2022-11-01T03:41:04.536Z,0.00
2022-11-01T03:42:04.533Z,0.00
2022-11-01T03:43:04.826Z,0.00
2022-11-01T03:44:04.544Z,0.00
2022-11-01T03:45:04.493Z,0.00
2022-11-01T03:46:04.468Z,0.00
2022-11-01T03:47:04.470Z,0.00
2022-11-01T03:48:04.787Z,0.00
2022-11-01T03:49:04.425Z,0.00
2022-11-01T03:50:04.448Z,0.00
2022-11-01T03:51:04.434Z,0.00
2022-11-01T03:52:04.398Z,0.00
2022-11-01T03:53:04.372Z,0.00
2022-11-01T03:54:04.370Z,0.00
2022-11-01T03:55:04.398Z,0.00
2022-11-01T03:56:04.344Z,0.00
2022-11-01T03:57:04.336Z,0.00
2022-11-01T03:58:04.726Z,0.00
2022-11-01T03:59:04.306Z,0.00
2022-11-01T04:00:04.303Z,0.00
2022-11-01T04:01:04.365Z,0.00
2022-11-01T04:02:04.455Z,0.00
2022-11-01T04:03:04.592Z,0.00
2022-11-01T04:04:04.242Z,0.00
2022-11-01T04:05:04.208Z,0.00
2022-11-01T04:06:04.245Z,0.00
2022-11-01T04:07:04.220Z,0.00
2022-11-01T04:08:04.193Z,0.00
2022-11-01T04:09:04.153Z,0.00
2022-11-01T04:10:04.178Z,0.00
2022-11-01T04:11:04.140Z,0.00
2022-11-01T04:12:04.157Z,0.00
2022-11-01T04:13:04.486Z,0.00
2022-11-01T04:14:04.101Z,0.00
2022-11-01T04:15:04.072Z,0.00
2022-11-01T04:16:04.068Z,0.00
2022-11-01T04:17:04.079Z,0.00
2022-11-01T04:18:04.050Z,0.00
2022-11-01T04:19:04.020Z,0.00
2022-11-01T04:20:04.018Z,0.00
2022-11-01T04:21:03.996Z,0.00
2022-11-01T04:22:04.026Z,0.00
2022-11-01T04:23:04.450Z,0.00
2022-11-01T04:24:03.967Z,0.00
2022-11-01T04:25:03.960Z,0.00
2022-11-01T04:26:03.937Z,0.00
2022-11-01T04:27:03.924Z,0.00
2022-11-01T04:28:04.007Z,0.00
2022-11-01T04:29:03.894Z,0.00
2022-11-01T04:30:03.897Z,0.00
2022-11-01T04:31:03.868Z,0.00
2022-11-01T04:32:03.876Z,0.00
2022-11-01T04:33:04.232Z,0.00
2022-11-01T04:34:03.867Z,0.00
2022-11-01T04:35:03.912Z,0.00
2022-11-01T04:36:03.814Z,0.00
2022-11-01T04:37:03.782Z,0.00
2022-11-01T04:38:04.353Z,0.00
2022-11-01T04:39:03.817Z,0.00
2022-11-01T04:40:03.776Z,0.00
2022-11-01T04:41:03.758Z,0.00
2022-11-01T04:42:03.726Z,0.00
2022-11-01T04:43:03.704Z,0.00
2022-11-01T04:44:03.785Z,0.00
2022-11-01T04:45:03.703Z,0.00
2022-11-01T04:46:03.679Z,0.00
2022-11-01T04:47:03.689Z,0.00
2022-11-01T04:48:04.112Z,0.00
2022-11-01T04:49:03.621Z,0.00
2022-11-01T04:50:03.704Z,0.00
2022-11-01T04:51:03.593Z,0.00
2022-11-01T04:52:03.598Z,0.00
2022-11-01T04:53:03.985Z,0.00
2022-11-01T04:54:03.579Z,0.00
2022-11-01T04:55:03.561Z,0.00
2022-11-01T04:56:03.571Z,0.00
2022-11-01T04:57:03.518Z,0.00
2022-11-01T04:58:03.521Z,0.00
2022-11-01T04:59:03.485Z,0.00
2022-11-01T05:00:03.494Z,0.00
2022-11-01T05:01:03.564Z,0.00
2022-11-01T05:02:03.546Z,0.00
2022-11-01T05:03:03.932Z,0.00
2022-11-01T05:04:03.436Z,0.00
2022-11-01T05:05:03.478Z,0.00
2022-11-01T05:06:03.430Z,0.00
2022-11-01T05:07:03.428Z,0.00
2022-11-01T05:08:03.554Z,0.00
2022-11-01T05:09:03.431Z,0.00
2022-11-01T05:10:03.360Z,0.00
2022-11-01T05:11:03.357Z,0.00
2022-11-01T05:12:03.391Z,0.00
2022-11-01T05:13:04.047Z,0.00
2022-11-01T05:14:03.304Z,0.00
2022-11-01T05:15:03.272Z,0.00
2022-11-01T05:16:20.043Z,0.00
2022-11-01T05:17:03.260Z,0.00
2022-11-01T05:18:03.279Z,0.00
2022-11-01T05:19:03.242Z,0.00
2022-11-01T05:20:03.213Z,0.00
2022-11-01T05:21:03.203Z,0.00
2022-11-01T05:22:03.384Z,0.00
2022-11-01T05:23:03.567Z,0.00
2022-11-01T05:24:03.188Z,0.00
2022-11-01T05:25:03.144Z,0.00
2022-11-01T05:26:03.181Z,0.00
2022-11-01T05:27:03.127Z,0.00
2022-11-01T05:28:03.479Z,0.00
2022-11-01T05:29:09.094Z,0.00
2022-11-01T05:30:03.132Z,0.00
2022-11-01T05:31:03.079Z,0.00
2022-11-01T05:32:03.062Z,0.00
2022-11-01T05:33:03.049Z,0.00
2022-11-01T05:34:03.080Z,0.00
2022-11-01T05:35:03.020Z,0.00
2022-11-01T05:36:03.031Z,0.00
2022-11-01T05:37:02.986Z,0.00
2022-11-01T05:38:03.287Z,0.00
2022-11-01T05:39:02.952Z,0.00
2022-11-01T05:40:02.990Z,0.00
2022-11-01T05:41:03.027Z,0.00
2022-11-01T05:42:03.231Z,0.00
2022-11-01T05:43:03.451Z,0.00
2022-11-01T05:44:02.902Z,0.00
2022-11-01T05:45:02.966Z,0.00
2022-11-01T05:46:02.887Z,0.00
2022-11-01T05:47:02.841Z,0.00
2022-11-01T05:48:02.849Z,0.00
2022-11-01T05:49:02.835Z,0.00
2022-11-01T05:50:02.874Z,0.00
2022-11-01T05:51:02.824Z,0.00
2022-11-01T05:52:02.810Z,0.00
2022-11-01T05:53:03.154Z,0.00
2022-11-01T05:54:02.742Z,1.00
2022-11-01T05:55:02.728Z,2.00
2022-11-01T05:56:02.731Z,1.00
2022-11-01T05:57:02.660Z,2.00
2022-11-01T05:58:02.663Z,2.00
2022-11-01T05:59:02.635Z,2.00
2022-11-01T06:00:02.671Z,2.00
2022-11-01T06:01:02.704Z,3.00
2022-11-01T06:02:02.821Z,3.00
2022-11-01T06:03:03.119Z,4.00
2022-11-01T06:04:02.636Z,10.00
2022-11-01T06:05:03.200Z,8.00
2022-11-01T06:06:02.593Z,11.00
2022-11-01T06:07:02.592Z,14.00
2022-11-01T06:08:02.547Z,14.00
2022-11-01T06:09:02.503Z,15.00
2022-11-01T06:10:02.533Z,19.00
2022-11-01T06:11:02.488Z,26.00
2022-11-01T06:12:02.467Z,29.00
2022-11-01T06:13:02.815Z,36.00
2022-11-01T06:14:02.462Z,32.00
2022-11-01T06:15:02.432Z,31.00
2022-11-01T06:16:02.401Z,37.00
2022-11-01T06:17:02.425Z,48.00
2022-11-01T06:18:02.668Z,54.00
2022-11-01T06:19:02.380Z,56.00
2022-11-01T06:20:02.417Z,51.00
2022-11-01T06:21:02.358Z,53.00
2022-11-01T06:22:02.332Z,49.00
2022-11-01T06:23:02.338Z,53.00
2022-11-01T06:24:02.407Z,46.00
2022-11-01T06:25:02.309Z,36.00
2022-11-01T06:26:02.279Z,37.00
2022-11-01T06:27:02.294Z,51.00
2022-11-01T06:28:02.617Z,100.00
2022-11-01T06:29:02.276Z,130.00
2022-11-01T06:30:02.235Z,147.00
2022-11-01T06:31:02.429Z,148.00
2022-11-01T06:32:02.195Z,223.00
2022-11-01T06:33:02.544Z,151.00
2022-11-01T06:34:02.168Z,172.00
2022-11-01T06:35:02.203Z,168.00
2022-11-01T06:36:02.136Z,226.00
2022-11-01T06:37:02.146Z,299.00
2022-11-01T06:38:02.135Z,290.00
2022-11-01T06:39:02.113Z,300.00
2022-11-01T06:40:02.119Z,240.00
2022-11-01T06:41:02.304Z,214.00
2022-11-01T06:42:02.126Z,209.00
2022-11-01T06:43:02.373Z,226.00
2022-11-01T06:44:02.067Z,249.00
2022-11-01T06:45:02.102Z,250.00
2022-11-01T06:46:02.055Z,240.00
2022-11-01T06:47:02.076Z,165.00
2022-11-01T06:48:02.445Z,236.00
2022-11-01T06:49:02.057Z,261.00
2022-11-01T06:50:02.017Z,303.00
2022-11-01T06:51:02.026Z,246.00
2022-11-01T06:52:01.925Z,236.00
2022-11-01T06:53:01.924Z,169.00
2022-11-01T06:54:01.900Z,224.00
2022-11-01T06:55:01.904Z,198.00
2022-11-01T06:56:01.880Z,140.00
2022-11-01T06:57:01.904Z,152.00
2022-11-01T06:58:02.271Z,243.00
2022-11-01T06:59:01.847Z,182.00
2022-11-01T07:00:01.818Z,251.00
2022-11-01T07:01:01.900Z,152.00
2022-11-01T07:02:02.055Z,156.00
2022-11-01T07:03:01.838Z,172.00
2022-11-01T07:04:01.887Z,263.00
2022-11-01T07:05:01.798Z,302.00
2022-11-01T07:06:01.844Z,169.00
2022-11-01T07:07:01.751Z,211.00
2022-11-01T07:08:02.192Z,218.00
2022-11-01T07:09:01.716Z,170.00
2022-11-01T07:10:01.708Z,101.00
2022-11-01T07:11:01.694Z,86.00
2022-11-01T07:12:01.662Z,77.00
2022-11-01T07:14:12.325Z,278.00
2022-11-01T07:15:13.265Z,226.00
2022-11-01T07:16:13.265Z,339.00
2022-11-01T07:17:13.245Z,383.00
2022-11-01T07:18:13.249Z,274.00
2022-11-01T07:19:13.249Z,214.00
2022-11-01T07:20:13.222Z,182.00
2022-11-01T07:21:13.213Z,259.00
2022-11-01T07:22:13.194Z,260.00
2022-11-01T07:23:13.228Z,244.00
2022-11-01T07:24:13.224Z,279.00
2022-11-01T07:25:13.169Z,329.00
2022-11-01T07:26:13.151Z,389.00
2022-11-01T07:27:17.875Z,458.00
2022-11-01T07:28:13.136Z,498.00
2022-11-01T07:29:13.144Z,585.00
2022-11-01T07:30:13.277Z,699.00
2022-11-01T07:31:13.063Z,800.00
2022-11-01T07:32:13.128Z,1003.00
2022-11-01T07:33:13.126Z,1165.00
2022-11-01T07:34:13.035Z,1218.00
2022-11-01T07:35:13.011Z,1239.00
2022-11-01T07:36:13.040Z,1337.00
2022-11-01T07:37:13.014Z,1335.00
2022-11-01T07:38:13.732Z,1439.00
2022-11-01T07:39:13.029Z,1529.00
2022-11-01T07:40:12.953Z,1593.00
2022-11-01T07:41:12.972Z,1675.00
2022-11-01T07:42:12.944Z,1680.00
2022-11-01T07:43:12.931Z,1749.00
2022-11-01T07:44:12.910Z,1780.00
2022-11-01T07:45:13.343Z,1837.00
2022-11-01T07:46:12.890Z,1822.00
2022-11-01T07:47:12.883Z,1827.00
2022-11-01T07:48:12.861Z,1853.00
2022-11-01T07:49:12.826Z,1874.00
2022-11-01T07:50:12.824Z,1910.00
2022-11-01T07:51:12.887Z,1937.00
2022-11-01T07:52:12.838Z,1943.00
2022-11-01T07:53:12.862Z,1956.00
2022-11-01T07:54:12.774Z,1972.00
2022-11-01T07:55:12.779Z,1988.00
2022-11-01T07:56:12.744Z,2005.00
2022-11-01T07:57:12.794Z,2054.00
2022-11-01T07:58:12.772Z,2126.00
2022-11-01T07:59:12.692Z,2127.00
2022-11-01T08:00:12.704Z,2115.00
2022-11-01T08:01:12.810Z,2147.00
2022-11-01T08:02:12.798Z,2137.00
2022-11-01T08:03:12.669Z,2096.00
2022-11-01T08:04:12.684Z,2081.00
2022-11-01T08:05:12.649Z,2078.00
2022-11-01T08:06:12.673Z,2074.00
2022-11-01T08:07:12.594Z,2075.00
2022-11-01T08:08:12.722Z,2058.00
2022-11-01T08:09:12.606Z,2043.00
2022-11-01T08:10:12.566Z,2048.00
2022-11-01T08:11:12.540Z,2069.00
2022-11-01T08:12:12.636Z,2085.00
2022-11-01T08:13:12.505Z,2093.00
2022-11-01T08:14:12.555Z,2090.00
2022-11-01T08:15:12.528Z,2094.00
2022-11-01T08:16:12.471Z,2117.00
2022-11-01T08:17:12.485Z,2109.00
2022-11-01T08:18:12.449Z,2067.00
2022-11-01T08:19:12.483Z,2050.00
2022-11-01T08:20:12.445Z,2007.00
2022-11-01T08:21:12.417Z,1933.00
2022-11-01T08:22:12.396Z,1931.00
2022-11-01T08:23:12.391Z,1950.00
2022-11-01T08:24:12.361Z,1966.00
2022-11-01T08:25:12.405Z,2018.00
2022-11-01T08:26:12.339Z,2022.00
2022-11-01T08:27:12.339Z,1983.00
2022-11-01T08:28:12.319Z,1937.00
2022-11-01T08:29:12.306Z,1888.00
2022-11-01T08:30:12.291Z,1891.00
2022-11-01T08:31:12.322Z,1969.00
2022-11-01T08:32:12.260Z,1985.00
2022-11-01T08:33:12.263Z,1945.00
2022-11-01T08:34:16.028Z,1941.00
2022-11-01T08:35:12.359Z,1982.00
2022-11-01T08:36:12.251Z,2014.00
2022-11-01T08:37:12.223Z,2113.00
2022-11-01T08:38:12.198Z,2247.00
2022-11-01T08:39:12.208Z,2272.00
2022-11-01T08:40:12.168Z,2352.00
2022-11-01T08:41:12.191Z,2412.00
2022-11-01T08:42:12.186Z,2341.00
2022-11-01T08:43:12.126Z,2261.00
2022-11-01T08:44:12.112Z,2235.00
2022-11-01T08:45:12.129Z,2276.00
2022-11-01T08:46:12.072Z,2322.00
2022-11-01T08:47:12.122Z,2446.00
2022-11-01T08:48:12.056Z,2636.00
2022-11-01T08:49:12.071Z,2782.00
2022-11-01T08:50:12.020Z,2826.00
2022-11-01T08:51:12.025Z,2802.00
2022-11-01T08:52:12.060Z,2856.00
2022-11-01T08:53:11.993Z,2918.00
2022-11-01T08:54:11.981Z,2950.00
2022-11-01T08:55:11.969Z,2987.00
2022-11-01T08:56:11.987Z,2991.00
2022-11-01T08:57:12.013Z,3012.00
2022-11-01T08:58:11.940Z,3010.00
2022-11-01T08:59:11.912Z,3051.00
2022-11-01T09:00:11.895Z,3032.00
2022-11-01T09:01:12.063Z,3034.00
2022-11-01T09:02:12.070Z,3030.00
2022-11-01T09:03:11.935Z,3038.00
2022-11-01T09:04:11.852Z,3027.00
2022-11-01T09:05:11.839Z,3036.00
2022-11-01T09:06:11.829Z,3069.00
2022-11-01T09:07:11.830Z,3035.00
2022-11-01T09:08:11.784Z,3093.00
2022-11-01T09:09:11.814Z,3133.00
2022-11-01T09:10:11.782Z,3096.00
2022-11-01T09:11:11.823Z,3110.00
2022-11-01T09:12:14.445Z,3111.00
2022-11-01T09:13:11.739Z,3098.00
2022-11-01T09:14:11.965Z,3175.00
2022-11-01T09:15:11.726Z,3140.00
2022-11-01T09:16:11.683Z,3252.00
2022-11-01T09:17:11.690Z,3119.00
2022-11-01T09:18:11.664Z,3197.00
2022-11-01T09:19:11.797Z,3251.00
2022-11-01T09:20:11.656Z,3370.00
2022-11-01T09:21:11.713Z,3191.00
2022-11-01T09:22:11.621Z,3232.00
2022-11-01T09:23:11.622Z,3271.00
2022-11-01T09:24:11.622Z,3306.00
2022-11-01T09:25:11.603Z,3320.00
2022-11-01T09:26:11.555Z,3320.00
2022-11-01T09:27:11.722Z,3321.00
2022-11-01T09:28:11.537Z,3319.00
2022-11-01T09:29:11.549Z,3319.00
2022-11-01T09:30:11.510Z,3326.00
2022-11-01T09:31:26.608Z,3341.00
2022-11-01T09:32:11.478Z,3350.00
2022-11-01T09:33:11.491Z,3330.00
2022-11-01T09:34:11.484Z,3342.00
2022-11-01T09:35:11.458Z,3363.00
2022-11-01T09:36:11.508Z,3366.00
2022-11-01T09:37:11.439Z,3362.00
2022-11-01T09:38:11.397Z,3374.00
2022-11-01T09:39:11.393Z,3365.00
2022-11-01T09:40:11.373Z,3378.00
2022-11-01T09:41:11.369Z,3366.00
2022-11-01T09:42:11.390Z,3380.00
2022-11-01T09:43:11.354Z,3394.00
2022-11-01T09:44:11.314Z,3393.00
2022-11-01T09:45:11.333Z,3378.00
2022-11-01T09:46:11.328Z,3371.00
2022-11-01T09:47:11.317Z,3437.00
2022-11-01T09:48:11.387Z,3446.00
2022-11-01T09:49:11.272Z,3433.00
2022-11-01T09:50:11.252Z,3417.00
2022-11-01T09:51:11.301Z,3407.00
2022-11-01T09:52:11.218Z,3444.00
2022-11-01T09:53:11.247Z,3452.00
2022-11-01T09:54:11.186Z,3446.00
2022-11-01T09:55:11.179Z,3441.00
2022-11-01T09:56:11.164Z,3473.00
2022-11-01T09:57:11.177Z,3459.00
2022-11-01T09:58:11.168Z,3489.00
2022-11-01T09:59:11.170Z,3474.00
2022-11-01T10:00:11.113Z,3481.00
2022-11-01T10:01:11.235Z,3483.00
2022-11-01T10:02:11.130Z,3494.00
2022-11-01T10:04:11.083Z,3533.00
2022-11-01T10:05:13.154Z,3491.00
2022-11-01T10:06:11.079Z,3543.00
2022-11-01T10:07:11.031Z,3502.00
2022-11-01T10:08:10.997Z,3551.00
2022-11-01T10:09:11.042Z,3548.00
2022-11-01T10:10:11.013Z,3545.00
2022-11-01T10:11:10.987Z,3535.00
2022-11-01T10:12:10.943Z,3518.00
2022-11-01T10:13:10.964Z,3554.00
2022-11-01T10:14:10.942Z,3551.00
2022-11-01T10:15:10.951Z,3556.00
2022-11-01T10:16:10.957Z,3565.00
2022-11-01T10:17:10.916Z,3590.00
2022-11-01T10:18:10.872Z,3576.00
2022-11-01T10:19:10.902Z,3591.00
2022-11-01T10:20:10.883Z,3570.00
2022-11-01T10:21:10.964Z,3643.00
2022-11-01T10:22:10.818Z,3611.00
2022-11-01T10:23:10.837Z,3594.00
2022-11-01T10:24:10.840Z,3646.00
2022-11-01T10:25:10.789Z,3600.00
2022-11-01T10:26:10.809Z,3632.00
2022-11-01T10:27:10.789Z,3648.00
2022-11-01T10:28:10.761Z,3606.00
2022-11-01T10:29:10.764Z,3619.00
2022-11-01T10:30:10.721Z,3669.00
2022-11-01T10:31:10.860Z,3645.00
2022-11-01T10:32:10.693Z,3657.00
2022-11-01T10:33:10.687Z,3653.00
2022-11-01T10:34:10.656Z,3656.00
2022-11-01T10:35:10.708Z,3666.00
2022-11-01T10:36:10.638Z,3711.00
2022-11-01T10:37:10.780Z,3666.00
2022-11-01T10:38:24.936Z,3719.00
2022-11-01T10:39:52.459Z,3686.00
2022-11-01T10:40:10.761Z,3685.00
2022-11-01T10:41:10.620Z,3742.00
2022-11-01T10:42:10.584Z,3737.00
2022-11-01T10:43:10.561Z,3705.00
2022-11-01T10:44:10.550Z,3735.00
2022-11-01T10:45:10.573Z,3739.00
2022-11-01T10:46:10.540Z,3721.00
2022-11-01T10:47:10.503Z,3735.00
2022-11-01T10:48:10.476Z,3753.00
2022-11-01T10:49:10.471Z,3743.00
2022-11-01T10:50:10.469Z,3748.00
2022-11-01T10:51:10.458Z,3748.00
2022-11-01T10:52:10.505Z,3816.00
2022-11-01T10:53:10.457Z,3736.00
2022-11-01T10:54:10.409Z,3948.00
2022-11-01T10:55:10.400Z,3512.00
2022-11-01T10:56:10.376Z,3779.00
2022-11-01T10:57:10.415Z,3797.00
2022-11-01T10:58:10.346Z,3772.00
2022-11-01T10:59:10.363Z,3809.00
2022-11-01T11:00:10.342Z,3816.00
2022-11-01T11:01:10.446Z,3777.00
2022-11-01T11:02:10.428Z,3776.00
2022-11-01T11:03:10.321Z,3801.00
2022-11-01T11:04:10.281Z,3844.00
2022-11-01T11:05:10.270Z,3787.00
2022-11-01T11:06:10.277Z,3820.00
2022-11-01T11:07:10.247Z,3809.00
2022-11-01T11:08:10.261Z,3791.00
2022-11-01T11:09:10.230Z,3781.00
2022-11-01T11:10:10.214Z,3794.00
2022-11-01T11:11:10.212Z,3873.00
2022-11-01T11:12:10.160Z,3808.00
2022-11-01T11:13:10.178Z,3831.00
2022-11-01T11:14:10.182Z,3850.00
2022-11-01T11:15:10.165Z,3933.00
2022-11-01T11:16:10.115Z,3969.00
2022-11-01T11:17:10.110Z,3613.00
2022-11-01T11:18:10.079Z,3878.00
2022-11-01T11:19:10.195Z,3858.00
2022-11-01T11:20:10.050Z,3856.00
2022-11-01T11:21:10.073Z,3879.00
2022-11-01T11:22:10.032Z,3839.00
2022-11-01T11:23:10.082Z,3862.00
2022-11-01T11:24:09.998Z,3947.00
2022-11-01T11:25:10.042Z,3883.00
2022-11-01T11:26:09.979Z,3961.00
2022-11-01T11:27:09.980Z,3957.00
2022-11-01T11:28:09.957Z,3990.00
2022-11-01T11:29:09.951Z,3882.00
2022-11-01T11:30:09.967Z,3821.00
2022-11-01T11:31:09.928Z,3814.00
2022-11-01T11:32:10.069Z,3914.00
2022-11-01T11:33:09.974Z,3883.00
2022-11-01T11:34:09.874Z,3920.00
2022-11-01T11:35:09.887Z,3836.00
2022-11-01T11:36:09.870Z,3852.00
2022-11-01T11:37:09.887Z,3949.00
2022-11-01T11:38:09.825Z,3965.00
2022-11-01T11:39:09.837Z,3938.00
2022-11-01T11:40:09.821Z,3941.00
2022-11-01T11:41:09.888Z,3944.00
2022-11-01T11:42:09.942Z,3921.00
2022-11-01T11:44:09.749Z,4001.00
2022-11-01T11:45:09.751Z,4051.00
2022-11-01T11:46:09.714Z,4002.00
2022-11-01T11:47:09.750Z,4243.00
2022-11-01T11:48:09.691Z,3642.00
2022-11-01T11:49:09.697Z,4091.00
2022-11-01T11:50:09.659Z,4071.00
2022-11-01T11:51:09.707Z,4060.00
2022-11-01T11:52:09.635Z,4042.00
2022-11-01T11:53:09.673Z,3870.00
2022-11-01T11:54:09.635Z,4003.00
2022-11-01T11:55:09.612Z,3996.00
2022-11-01T11:56:09.584Z,3877.00
2022-11-01T11:57:09.630Z,3895.00
2022-11-01T11:58:09.559Z,3944.00
2022-11-01T11:59:09.587Z,3945.00
2022-11-01T12:00:09.545Z,4000.00
2022-11-01T12:01:09.630Z,4103.00
2022-11-01T12:02:11.996Z,4004.00
2022-11-01T12:03:09.545Z,3969.00
2022-11-01T12:04:09.498Z,3778.00
2022-11-01T12:05:09.514Z,3854.00
2022-11-01T12:06:09.452Z,3804.00
2022-11-01T12:07:09.464Z,3727.00
2022-11-01T12:08:09.430Z,3973.00
2022-11-01T12:09:09.433Z,4224.00
2022-11-01T12:10:09.398Z,4243.00
2022-11-01T12:11:09.440Z,4117.00
2022-11-01T12:12:09.387Z,3880.00
2022-11-01T12:13:09.390Z,3754.00
2022-11-01T12:14:09.370Z,3964.00
2022-11-01T12:15:09.376Z,3530.00
2022-11-01T12:16:09.325Z,3929.00
2022-11-01T12:17:09.328Z,3963.00
2022-11-01T12:18:12.893Z,3790.00
2022-11-01T12:19:09.307Z,3706.00
2022-11-01T12:20:09.336Z,3668.00
2022-11-01T12:21:09.271Z,3628.00
2022-11-01T12:22:09.260Z,3740.00
2022-11-01T12:23:09.319Z,3823.00
2022-11-01T12:24:09.214Z,3755.00
2022-11-01T12:25:09.232Z,3688.00
2022-11-01T12:26:12.557Z,3729.00
2022-11-01T12:27:09.246Z,3641.00
2022-11-01T12:28:09.278Z,3599.00
2022-11-01T12:29:09.297Z,3590.00
2022-11-01T12:30:09.201Z,3583.00
2022-11-01T12:31:09.207Z,3578.00
2022-11-01T12:32:09.153Z,3572.00
2022-11-01T12:33:09.196Z,3577.00
2022-11-01T12:34:09.192Z,3572.00
2022-11-01T12:35:09.090Z,3582.00
2022-11-01T12:36:09.100Z,3580.00
2022-11-01T12:37:09.080Z,3583.00
2022-11-01T12:38:09.047Z,3576.00
2022-11-01T12:39:09.042Z,3588.00
2022-11-01T12:40:09.093Z,3568.00
2022-11-01T12:41:09.001Z,3574.00
2022-11-01T12:42:09.034Z,3547.00
2022-11-01T12:43:08.989Z,3524.00
2022-11-01T12:44:08.975Z,3546.00
2022-11-01T12:45:08.971Z,3541.00